createdAt,value
2018-08-28T00:01:11.210Z,5.40
2018-08-28T00:03:39.243Z,4.83
2018-08-28T00:06:07.288Z,4.87
2018-08-28T00:08:35.353Z,4.73
2018-08-28T00:11:03.455Z,4.83
2018-08-28T00:13:31.479Z,5.40
2018-08-28T00:15:59.525Z,5.30
2018-08-28T00:18:27.645Z,5.13
2018-08-28T00:20:55.680Z,5.17
2018-08-28T00:23:23.754Z,4.97
2018-08-28T00:25:51.813Z,5.27
2018-08-28T00:28:19.909Z,4.63
2018-08-28T00:30:48.000Z,5.43
2018-08-28T00:33:16.072Z,5.50
2018-08-28T00:35:44.145Z,4.90
2018-08-28T00:38:12.212Z,4.87
2018-08-28T00:40:40.294Z,4.80
2018-08-28T00:43:08.490Z,5.17
2018-08-28T00:45:36.573Z,5.93
2018-08-28T00:48:04.605Z,5.20
2018-08-28T00:50:32.651Z,5.30
2018-08-28T00:53:00.744Z,5.10
2018-08-28T00:55:28.812Z,5.27
2018-08-28T00:57:56.852Z,5.80
2018-08-28T01:00:24.921Z,5.00
2018-08-28T01:02:52.968Z,4.83
2018-08-28T01:05:23.566Z,5.37
2018-08-28T01:07:52.040Z,5.27
2018-08-28T01:10:20.148Z,5.03
2018-08-28T01:12:48.198Z,5.17
2018-08-28T01:15:17.276Z,5.57
2018-08-28T01:17:45.350Z,5.50
2018-08-28T01:20:13.389Z,6.30
2018-08-28T01:22:41.501Z,6.00
2018-08-28T01:25:10.226Z,5.93
2018-08-28T01:27:38.329Z,6.50
2018-08-28T01:30:06.360Z,5.87
2018-08-28T01:32:34.417Z,6.10
2018-08-28T01:35:02.519Z,6.33
2018-08-28T01:37:30.556Z,6.17
2018-08-28T01:39:58.598Z,5.73
2018-08-28T01:42:26.683Z,6.07
2018-08-28T01:44:54.742Z,6.20
2018-08-28T01:47:23.031Z,6.10
2018-08-28T01:49:51.489Z,6.17
2018-08-28T01:52:20.001Z,6.10
2018-08-28T01:54:48.078Z,5.80
2018-08-28T01:57:16.167Z,6.23
2018-08-28T01:59:44.421Z,5.93
2018-08-28T02:02:12.490Z,6.20
2018-08-28T02:04:40.537Z,6.10
2018-08-28T02:07:08.635Z,6.03
2018-08-28T02:09:36.683Z,5.97
2018-08-28T02:12:04.749Z,6.00
2018-08-28T02:14:32.822Z,5.97
2018-08-28T02:17:01.638Z,5.50
2018-08-28T02:19:29.939Z,6.23
2018-08-28T02:21:58.257Z,5.80
2018-08-28T02:24:26.591Z,5.83
2018-08-28T02:26:54.874Z,6.30
2018-08-28T02:29:23.249Z,6.07
2018-08-28T02:31:51.606Z,5.80
2018-08-28T02:34:19.945Z,5.87
2018-08-28T02:36:48.226Z,5.97
2018-08-28T02:39:16.498Z,5.73
2018-08-28T02:41:44.818Z,5.83
2018-08-28T02:44:13.093Z,6.13
2018-08-28T02:46:41.433Z,6.57
2018-08-28T02:49:09.762Z,5.70
2018-08-28T02:51:38.071Z,5.83
2018-08-28T02:54:06.581Z,6.67
2018-08-28T02:56:34.970Z,6.03
2018-08-28T02:59:03.330Z,5.93
2018-08-28T03:01:31.618Z,6.30
2018-08-28T03:03:59.940Z,6.50
2018-08-28T03:06:28.264Z,6.10
2018-08-28T03:08:56.643Z,6.33
2018-08-28T03:11:24.991Z,5.33
2018-08-28T03:13:53.270Z,5.63
2018-08-28T03:16:21.601Z,6.10
2018-08-28T03:18:49.954Z,6.20
2018-08-28T03:21:18.731Z,6.00
2018-08-28T03:23:47.016Z,5.60
2018-08-28T03:26:15.433Z,6.30
2018-08-28T03:28:43.723Z,6.43
2018-08-28T03:31:12.041Z,5.83
2018-08-28T03:33:40.367Z,6.30
2018-08-28T03:36:08.653Z,5.73
2018-08-28T03:38:37.000Z,6.43
2018-08-28T03:41:05.405Z,5.73
2018-08-28T03:43:33.712Z,6.10
2018-08-28T03:46:02.002Z,5.90
2018-08-28T03:48:30.356Z,6.00
2018-08-28T03:50:58.713Z,5.77
2018-08-28T03:53:27.024Z,6.03
2018-08-28T03:55:55.348Z,5.60
2018-08-28T03:58:23.714Z,5.87
2018-08-28T04:00:52.120Z,6.50
2018-08-28T04:03:20.425Z,6.53
2018-08-28T04:05:48.846Z,6.20
2018-08-28T04:08:19.857Z,6.33
2018-08-28T04:10:48.166Z,6.10
2018-08-28T04:13:16.542Z,5.53
2018-08-28T04:15:44.988Z,5.23
2018-08-28T04:18:13.454Z,5.90
2018-08-28T04:20:41.881Z,5.67
2018-08-28T04:23:10.267Z,5.63
2018-08-28T04:25:38.598Z,5.97
2018-08-28T04:28:06.997Z,5.70
2018-08-28T04:30:35.415Z,5.43
2018-08-28T04:33:03.757Z,6.03
2018-08-28T04:35:32.189Z,5.73
2018-08-28T04:38:00.576Z,5.80
2018-08-28T04:40:29.085Z,6.07
2018-08-28T04:42:57.296Z,6.03
2018-08-28T04:45:25.451Z,5.33
2018-08-28T04:47:53.598Z,5.70
2018-08-28T04:50:21.790Z,5.43
2018-08-28T04:52:49.972Z,5.40
2018-08-28T04:55:18.069Z,5.40
2018-08-28T04:57:46.209Z,5.80
2018-08-28T05:00:14.323Z,5.50
2018-08-28T05:02:42.389Z,5.60
2018-08-28T05:05:10.505Z,5.50
2018-08-28T05:07:38.699Z,5.17
2018-08-28T05:10:06.945Z,5.33
2018-08-28T05:12:35.262Z,5.50
2018-08-28T05:15:03.394Z,5.40
2018-08-28T05:17:31.496Z,5.20
2018-08-28T05:20:02.231Z,5.30
2018-08-28T05:22:31.652Z,5.87
2018-08-28T05:24:59.745Z,5.53
2018-08-28T05:27:27.829Z,5.47
2018-08-28T05:29:56.642Z,5.33
2018-08-28T05:32:24.796Z,5.30
2018-08-28T05:34:52.990Z,5.80
2018-08-28T05:37:28.849Z,5.07
2018-08-28T05:39:56.989Z,5.70
2018-08-28T05:42:25.057Z,5.30
2018-08-28T05:44:55.283Z,5.23
2018-08-28T05:47:23.488Z,5.70
2018-08-28T05:49:51.536Z,5.37
2018-08-28T05:52:21.700Z,5.23
2018-08-28T05:54:51.986Z,5.67
2018-08-28T05:57:20.190Z,5.27
2018-08-28T05:59:48.349Z,5.53
2018-08-28T06:02:19.218Z,5.30
2018-08-28T06:04:47.257Z,5.13
2018-08-28T06:07:15.305Z,5.43
2018-08-28T06:09:44.767Z,4.90
2018-08-28T06:12:12.835Z,5.43
2018-08-28T06:14:40.929Z,5.13
2018-08-28T06:17:10.275Z,5.33
2018-08-28T06:19:38.466Z,4.77
2018-08-28T06:22:12.286Z,4.63
2018-08-28T06:24:43.315Z,5.00
2018-08-28T06:27:11.613Z,4.93
2018-08-28T06:29:41.702Z,5.03
2018-08-28T06:32:12.130Z,4.97
2018-08-28T06:34:41.908Z,4.93
2018-08-28T06:37:10.034Z,5.17
2018-08-28T06:39:39.898Z,5.00
2018-08-28T06:42:08.040Z,5.17
2018-08-28T06:44:37.949Z,5.13
2018-08-28T06:47:07.645Z,4.97
2018-08-28T06:49:37.700Z,4.13
2018-08-28T06:52:07.163Z,5.13
2018-08-28T06:54:36.951Z,4.47
2018-08-28T06:57:05.851Z,5.00
2018-08-28T06:59:35.831Z,4.97
2018-08-28T07:02:10.621Z,5.13
2018-08-28T07:04:39.655Z,4.33
2018-08-28T07:07:08.884Z,4.87
2018-08-28T07:09:36.922Z,4.67
2018-08-28T07:12:05.042Z,4.40
2018-08-28T07:14:33.106Z,4.40
2018-08-28T07:17:01.669Z,4.57
2018-08-28T07:19:29.740Z,4.80
2018-08-28T07:21:57.809Z,4.67
2018-08-28T07:24:25.930Z,4.50
2018-08-28T07:26:54.088Z,4.67
2018-08-28T07:29:22.177Z,4.53
2018-08-28T07:31:50.270Z,4.30
2018-08-28T07:34:18.360Z,4.00
2018-08-28T07:36:46.441Z,4.37
2018-08-28T07:39:14.546Z,3.97
2018-08-28T07:41:42.585Z,4.37
2018-08-28T07:44:10.694Z,4.87
2018-08-28T07:46:38.781Z,4.53
2018-08-28T07:49:06.802Z,4.17
2018-08-28T07:51:34.865Z,3.77
2018-08-28T07:54:02.994Z,3.77
2018-08-28T07:56:31.048Z,4.17
2018-08-28T07:58:59.201Z,4.07
2018-08-28T08:01:27.324Z,4.50
2018-08-28T08:03:55.327Z,4.10
2018-08-28T08:06:23.413Z,4.23
2018-08-28T08:08:51.487Z,4.50
2018-08-28T08:11:19.544Z,4.07
2018-08-28T08:13:47.667Z,4.00
2018-08-28T08:16:15.862Z,4.70
2018-08-28T08:18:43.858Z,3.73
2018-08-28T08:21:11.931Z,4.30
2018-08-28T08:23:40.016Z,4.40
2018-08-28T08:26:08.163Z,4.33
2018-08-28T08:28:36.232Z,4.40
2018-08-28T08:31:04.305Z,4.70
2018-08-28T08:33:32.443Z,4.57
2018-08-28T08:36:00.545Z,4.30
2018-08-28T08:38:28.585Z,4.17
2018-08-28T08:40:56.773Z,4.00
2018-08-28T08:43:24.883Z,4.30
2018-08-28T08:45:52.956Z,3.87
2018-08-28T08:48:21.061Z,4.17
2018-08-28T08:50:49.072Z,4.10
2018-08-28T08:53:17.111Z,3.80
2018-08-28T08:55:45.174Z,4.07
2018-08-28T08:58:13.347Z,3.90
2018-08-28T09:00:41.561Z,3.90
2018-08-28T09:03:09.700Z,4.27
2018-08-28T09:05:37.765Z,4.70
2018-08-28T09:08:05.874Z,4.53
2018-08-28T09:10:33.942Z,3.83
2018-08-28T09:13:02.065Z,4.50
2018-08-28T09:15:30.129Z,4.40
2018-08-28T09:17:58.197Z,3.97
2018-08-28T09:20:26.277Z,3.63
2018-08-28T09:22:54.324Z,3.77
2018-08-28T09:25:22.451Z,4.10
2018-08-28T09:27:50.517Z,3.90
2018-08-28T09:30:18.557Z,4.30
2018-08-28T09:32:46.668Z,3.93
2018-08-28T09:35:14.757Z,3.83
2018-08-28T09:37:42.933Z,4.07
2018-08-28T09:40:10.953Z,4.00
2018-08-28T09:42:39.666Z,4.80
2018-08-28T09:45:07.737Z,4.23
2018-08-28T09:47:35.806Z,3.70
2018-08-28T09:50:04.237Z,3.90
2018-08-28T09:52:32.280Z,4.23
2018-08-28T09:55:00.334Z,4.87
2018-08-28T09:57:28.372Z,3.97
2018-08-28T09:59:56.485Z,4.90
2018-08-28T10:02:24.555Z,4.43
2018-08-28T10:04:52.670Z,4.30
2018-08-28T10:07:20.794Z,3.77
2018-08-28T10:09:48.942Z,4.10
2018-08-28T10:12:17.127Z,3.93
2018-08-28T10:14:48.054Z,4.20
2018-08-28T10:17:16.157Z,5.30
2018-08-28T10:19:44.560Z,4.17
2018-08-28T10:22:12.622Z,4.20
2018-08-28T10:24:40.841Z,4.50
2018-08-28T10:27:08.913Z,4.40
2018-08-28T10:29:37.010Z,4.00
2018-08-28T10:32:05.519Z,4.30
2018-08-28T10:34:33.582Z,4.80
2018-08-28T10:37:01.712Z,4.47
2018-08-28T10:39:29.878Z,4.30
2018-08-28T10:41:58.108Z,3.93
2018-08-28T10:44:26.214Z,5.00
2018-08-28T10:46:54.578Z,4.43
2018-08-28T10:49:22.506Z,4.40
2018-08-28T10:51:50.653Z,4.57
2018-08-28T10:54:18.868Z,4.70
2018-08-28T10:56:47.027Z,4.43
2018-08-28T10:59:15.163Z,4.37
2018-08-28T11:01:43.908Z,4.87
2018-08-28T11:04:12.215Z,4.40
2018-08-28T11:06:40.361Z,4.27
2018-08-28T11:09:08.434Z,4.50
2018-08-28T11:11:36.508Z,4.27
2018-08-28T11:14:04.642Z,4.30
2018-08-28T11:16:32.723Z,4.37
2018-08-28T11:19:00.964Z,5.20
2018-08-28T11:21:29.724Z,4.83
2018-08-28T11:23:57.894Z,5.20
2018-08-28T11:26:25.965Z,4.63
2018-08-28T11:28:54.793Z,5.33
2018-08-28T11:31:22.963Z,5.00
2018-08-28T11:33:51.060Z,5.07
2018-08-28T11:36:19.188Z,5.47
2018-08-28T11:38:47.272Z,5.10
2018-08-28T11:41:15.353Z,5.00
2018-08-28T11:43:43.481Z,5.00
2018-08-28T11:46:11.566Z,4.60
2018-08-28T11:48:39.674Z,4.93
2018-08-28T11:51:08.681Z,5.03
2018-08-28T11:53:36.773Z,4.37
2018-08-28T11:56:04.968Z,6.53
2018-08-28T11:58:33.041Z,4.90
2018-08-28T12:01:01.300Z,4.70
2018-08-28T12:03:29.416Z,4.63
2018-08-28T12:05:57.574Z,4.40
2018-08-28T12:08:25.736Z,4.80
2018-08-28T12:10:53.860Z,4.17
2018-08-28T12:13:22.040Z,4.70
2018-08-28T12:15:50.095Z,4.40
2018-08-28T12:18:18.353Z,4.40
2018-08-28T12:20:46.533Z,5.13
2018-08-28T12:23:14.586Z,4.10
2018-08-28T12:25:42.778Z,4.80
2018-08-28T12:28:10.880Z,4.60
2018-08-28T12:30:38.969Z,5.03
2018-08-28T12:33:07.048Z,4.87
2018-08-28T12:35:35.140Z,4.50
2018-08-28T12:38:03.351Z,6.00
2018-08-28T12:40:31.743Z,5.30
2018-08-28T12:42:59.859Z,4.40
2018-08-28T12:45:28.506Z,5.00
2018-08-28T12:47:56.590Z,4.87
2018-08-28T12:50:24.719Z,4.47
2018-08-28T12:52:52.741Z,4.53
2018-08-28T12:55:20.909Z,4.70
2018-08-28T12:57:48.990Z,4.67
2018-08-28T13:00:17.171Z,4.93
2018-08-28T13:02:45.448Z,4.90
2018-08-28T13:05:13.705Z,4.80
2018-08-28T13:07:42.196Z,4.63
2018-08-28T13:10:10.382Z,4.90
2018-08-28T13:12:38.518Z,5.03
2018-08-28T13:15:06.682Z,4.43
2018-08-28T13:17:34.857Z,4.80
2018-08-28T13:20:03.284Z,5.10
2018-08-28T13:22:31.628Z,4.67
2018-08-28T13:25:00.038Z,4.83
2018-08-28T13:27:28.449Z,5.10
2018-08-28T13:29:56.835Z,5.30
2018-08-28T13:32:25.176Z,4.77
2018-08-28T13:34:53.600Z,4.60
2018-08-28T13:37:24.258Z,4.70
2018-08-28T13:39:55.814Z,4.40
2018-08-28T13:42:24.808Z,4.53
2018-08-28T13:44:52.976Z,4.33
2018-08-28T13:47:21.117Z,5.07
2018-08-28T13:49:49.259Z,4.40
2018-08-28T13:52:17.418Z,4.30
2018-08-28T13:54:45.552Z,4.50
2018-08-28T13:57:13.594Z,4.77
2018-08-28T13:59:41.746Z,5.20
2018-08-28T14:02:09.817Z,4.50
2018-08-28T14:04:37.889Z,5.27
2018-08-28T14:07:06.122Z,4.50
2018-08-28T14:09:34.231Z,4.13
2018-08-28T14:12:02.370Z,4.07
2018-08-28T14:14:30.571Z,4.47
2018-08-28T14:16:58.726Z,4.40
2018-08-28T14:19:26.781Z,4.90
2018-08-28T14:21:54.894Z,4.70
2018-08-28T14:24:22.997Z,5.37
2018-08-28T14:26:51.078Z,5.10
2018-08-28T14:29:19.291Z,7.87
2018-08-28T14:31:48.078Z,4.77
2018-08-28T14:34:16.246Z,5.43
2018-08-28T14:36:44.383Z,5.00
2018-08-28T14:39:12.454Z,5.27
2018-08-28T14:41:40.542Z,4.70
2018-08-28T14:44:08.916Z,5.47
2018-08-28T14:46:36.980Z,4.97
2018-08-28T14:49:05.399Z,4.93
2018-08-28T14:51:33.544Z,4.67
2018-08-28T14:54:01.753Z,4.87
2018-08-28T14:56:30.045Z,4.90
2018-08-28T14:58:58.977Z,5.70
2018-08-28T15:01:27.155Z,5.47
2018-08-28T15:03:55.329Z,4.67
2018-08-28T15:06:23.649Z,4.50
2018-08-28T15:08:52.778Z,5.30
2018-08-28T15:11:20.926Z,5.27
2018-08-28T15:13:49.700Z,5.53
2018-08-28T15:16:18.014Z,5.73
2018-08-28T15:18:46.078Z,6.47
2018-08-28T15:21:14.814Z,5.57
2018-08-28T15:23:43.038Z,5.73
2018-08-28T15:26:11.226Z,5.57
2018-08-28T15:28:39.304Z,5.00
2018-08-28T15:31:07.562Z,5.90
2018-08-28T15:33:36.717Z,5.50
2018-08-28T15:36:05.009Z,5.60
2018-08-28T15:38:33.506Z,5.27
2018-08-28T15:41:02.017Z,5.23
2018-08-28T15:43:31.925Z,5.27
2018-08-28T15:46:00.052Z,5.70
2018-08-28T15:48:28.172Z,5.33
2018-08-28T15:50:56.302Z,5.03
2018-08-28T15:53:24.585Z,4.80
2018-08-28T15:55:52.717Z,4.93
2018-08-28T15:58:20.883Z,5.10
2018-08-28T16:00:48.930Z,5.20
2018-08-28T16:03:17.054Z,4.67
2018-08-28T16:05:45.123Z,4.60
2018-08-28T16:08:13.290Z,4.80
2018-08-28T16:10:41.421Z,4.67
2018-08-28T16:13:09.588Z,6.57
2018-08-28T16:15:37.719Z,7.03
2018-08-28T16:18:05.828Z,4.77
2018-08-28T16:20:33.960Z,5.37
2018-08-28T16:23:04.287Z,5.80
2018-08-28T16:25:32.377Z,5.57
2018-08-28T16:28:01.328Z,5.90
2018-08-28T16:30:29.506Z,6.40
2018-08-28T16:32:57.601Z,6.50
2018-08-28T16:35:25.833Z,5.30
2018-08-28T16:37:54.098Z,5.73
2018-08-28T16:40:22.244Z,5.10
2018-08-28T16:42:50.427Z,5.17
2018-08-28T16:45:18.624Z,5.27
2018-08-28T16:47:46.717Z,4.90
2018-08-28T16:50:14.869Z,5.43
2018-08-28T16:52:43.025Z,4.27
2018-08-28T16:55:11.135Z,4.43
2018-08-28T16:57:39.277Z,4.47
2018-08-28T17:00:07.387Z,4.47
2018-08-28T17:02:35.547Z,4.97
2018-08-28T17:05:03.635Z,4.47
2018-08-28T17:07:31.797Z,4.60
2018-08-28T17:09:59.854Z,4.90
2018-08-28T17:12:28.083Z,4.97
2018-08-28T17:14:56.248Z,4.47
2018-08-28T17:17:24.277Z,4.87
2018-08-28T17:19:52.425Z,4.80
2018-08-28T17:22:20.536Z,4.87
2018-08-28T17:24:48.752Z,4.70
2018-08-28T17:27:16.827Z,4.30
2018-08-28T17:29:44.967Z,4.83
2018-08-28T17:32:13.079Z,5.37
2018-08-28T17:34:41.212Z,5.07
2018-08-28T17:37:09.425Z,4.57
2018-08-28T17:39:37.476Z,5.23
2018-08-28T17:42:05.573Z,5.10
2018-08-28T17:44:34.596Z,5.23
2018-08-28T17:47:03.022Z,4.90
2018-08-28T17:49:31.048Z,5.27
2018-08-28T17:51:59.232Z,4.97
2018-08-28T17:54:27.376Z,5.40
2018-08-28T17:56:55.536Z,5.70
2018-08-28T17:59:23.625Z,6.40
2018-08-28T18:01:51.688Z,6.40
2018-08-28T18:04:19.848Z,6.03
2018-08-28T18:06:48.055Z,5.23
2018-08-28T18:09:16.214Z,6.10
2018-08-28T18:11:44.315Z,5.63
2018-08-28T18:14:12.429Z,6.07
2018-08-28T18:16:40.507Z,6.00
2018-08-28T18:19:08.675Z,6.23
2018-08-28T18:21:36.840Z,5.87
2018-08-28T18:24:04.962Z,5.67
2018-08-28T18:26:33.203Z,6.03
2018-08-28T18:29:01.394Z,5.37
2018-08-28T18:31:30.246Z,5.77
2018-08-28T18:33:58.465Z,5.63
2018-08-28T18:36:26.616Z,5.40
2018-08-28T18:38:54.795Z,5.77
2018-08-28T18:41:22.931Z,6.00
2018-08-28T18:43:50.990Z,5.50
2018-08-28T18:46:19.244Z,5.43
2018-08-28T18:48:47.409Z,5.50
2018-08-28T18:51:15.699Z,7.07
2018-08-28T18:53:43.867Z,6.57
2018-08-28T18:56:12.139Z,7.17
2018-08-28T18:58:40.360Z,6.80
2018-08-28T19:01:08.565Z,7.87
2018-08-28T19:03:36.680Z,8.93
2018-08-28T19:06:04.856Z,7.30
2018-08-28T19:08:32.951Z,7.70
2018-08-28T19:11:01.041Z,7.20
2018-08-28T19:13:29.448Z,6.40
2018-08-28T19:15:57.636Z,7.90
2018-08-28T19:18:26.971Z,8.00
2018-08-28T19:21:09.737Z,7.00
2018-08-28T19:23:37.898Z,6.30
2018-08-28T19:26:08.108Z,6.70
2018-08-28T19:28:36.347Z,6.30
2018-08-28T19:31:04.505Z,6.00
2018-08-28T19:33:33.154Z,5.73
2018-08-28T19:36:01.425Z,8.13
2018-08-28T19:38:30.593Z,7.43
2018-08-28T19:40:58.745Z,7.57
2018-08-28T19:43:26.903Z,8.03
2018-08-28T19:45:55.168Z,7.30
2018-08-28T19:48:23.435Z,7.10
2018-08-28T19:50:51.635Z,6.40
2018-08-28T19:53:25.469Z,7.27
2018-08-28T19:55:54.705Z,6.17
2018-08-28T19:58:24.228Z,6.37
2018-08-28T20:00:53.368Z,6.50
2018-08-28T20:03:21.612Z,6.57
2018-08-28T20:05:49.879Z,7.40
2018-08-28T20:08:18.117Z,7.33
2018-08-28T20:10:46.316Z,7.03
2018-08-28T20:13:14.796Z,7.87
2018-08-28T20:15:43.176Z,7.93
2018-08-28T20:18:11.551Z,7.07
2018-08-28T20:20:39.936Z,6.90
2018-08-28T20:23:08.236Z,6.37
2018-08-28T20:25:36.624Z,6.77
2018-08-28T20:28:05.589Z,7.50
2018-08-28T20:30:33.991Z,7.60
2018-08-28T20:33:02.412Z,6.90
2018-08-28T20:35:30.796Z,8.20
2018-08-28T20:37:59.195Z,7.00
2018-08-28T20:40:27.709Z,8.37
2018-08-28T20:42:57.010Z,7.40
2018-08-28T20:45:25.766Z,7.57
2018-08-28T20:47:54.078Z,8.47
2018-08-28T20:50:22.831Z,7.23
2018-08-28T20:52:52.270Z,6.80
2018-08-28T20:55:21.173Z,7.57
2018-08-28T20:57:49.763Z,8.43
2018-08-28T21:00:18.503Z,6.93
2018-08-28T21:02:47.674Z,6.83
2018-08-28T21:05:20.728Z,7.10
2018-08-28T21:07:49.358Z,6.97
2018-08-28T21:10:18.140Z,7.30
2018-08-28T21:12:47.023Z,8.07
2018-08-28T21:15:15.724Z,8.30
2018-08-28T21:17:44.597Z,7.67
2018-08-28T21:20:12.988Z,7.93
2018-08-28T21:22:42.039Z,7.73
2018-08-28T21:25:10.440Z,7.60
2018-08-28T21:27:41.585Z,7.70
2018-08-28T21:30:10.619Z,6.43
2018-08-28T21:32:39.103Z,7.33
2018-08-28T21:35:08.073Z,7.27
2018-08-28T21:37:36.642Z,7.43
2018-08-28T21:40:07.497Z,7.70
2018-08-28T21:42:36.833Z,7.60
2018-08-28T21:45:05.552Z,7.30
2018-08-28T21:47:34.482Z,7.80
2018-08-28T21:50:02.851Z,7.23
2018-08-28T21:52:31.734Z,7.60
2018-08-28T21:55:00.488Z,8.27
2018-08-28T21:57:29.070Z,8.33
2018-08-28T21:59:58.037Z,7.63
2018-08-28T22:02:26.841Z,6.77
2018-08-28T22:04:56.582Z,8.33
2018-08-28T22:07:30.675Z,8.13
2018-08-28T22:09:59.058Z,7.23
2018-08-28T22:12:27.400Z,6.97
2018-08-28T22:14:56.471Z,7.87
2018-08-28T22:17:25.028Z,7.70
2018-08-28T22:19:53.514Z,6.93
2018-08-28T22:22:23.488Z,6.80
2018-08-28T22:24:51.855Z,6.90
2018-08-28T22:27:21.077Z,7.63
2018-08-28T22:29:49.740Z,7.67
2018-08-28T22:32:18.089Z,6.37
2018-08-28T22:34:46.485Z,7.17
2018-08-28T22:37:15.472Z,6.73
2018-08-28T22:39:43.797Z,6.87
2018-08-28T22:42:12.109Z,7.17
2018-08-28T22:44:40.411Z,7.23
2018-08-28T22:47:08.784Z,7.00
2018-08-28T22:49:37.090Z,7.23
2018-08-28T22:52:05.477Z,6.73
2018-08-28T22:54:33.806Z,6.60
2018-08-28T22:57:02.253Z,7.33
2018-08-28T22:59:30.699Z,7.37
2018-08-28T23:01:58.993Z,6.93
2018-08-28T23:04:27.362Z,6.27
2018-08-28T23:06:55.707Z,6.40
2018-08-28T23:09:24.095Z,6.73
2018-08-28T23:11:52.496Z,7.13
2018-08-28T23:14:20.806Z,6.53
2018-08-28T23:16:49.090Z,7.03
2018-08-28T23:19:17.443Z,6.20
2018-08-28T23:21:45.867Z,7.30
2018-08-28T23:24:14.207Z,6.90
2018-08-28T23:26:42.556Z,7.07
2018-08-28T23:29:10.870Z,6.47
2018-08-28T23:31:39.181Z,6.57
2018-08-28T23:34:07.498Z,6.63
2018-08-28T23:36:35.829Z,6.17
2018-08-28T23:39:04.455Z,6.67
2018-08-28T23:41:32.802Z,6.43
2018-08-28T23:44:01.117Z,7.07
2018-08-28T23:46:29.520Z,6.10
2018-08-28T23:48:57.878Z,6.40
2018-08-28T23:51:26.188Z,6.27
2018-08-28T23:53:54.502Z,5.90
2018-08-28T23:56:23.013Z,5.93
2018-08-28T23:58:51.371Z,6.27
